sensor_id;sensor_type;location;lat;lon;timestamp;temperature;humidity
13049;DHT22;6591;51.446;5.404;2023-05-16T00:00:47;13.30;99.90
13049;DHT22;6591;51.446;5.404;2023-05-16T00:03:14;12.60;99.90
13049;DHT22;6591;51.446;5.404;2023-05-16T00:05:41;13.40;99.90
13049;DHT22;6591;51.446;5.404;2023-05-16T00:08:08;12.90;99.90
13049;DHT22;6591;51.446;5.404;2023-05-16T00:10:36;12.20;99.90
13049;DHT22;6591;51.446;5.404;2023-05-16T00:13:03;12.80;99.90
13049;DHT22;6591;51.446;5.404;2023-05-16T00:15:30;12.10;99.90
13049;DHT22;6591;51.446;5.404;2023-05-16T00:17:57;13.80;99.90
13049;DHT22;6591;51.446;5.404;2023-05-16T00:20:26;12.30;99.90
13049;DHT22;6591;51.446;5.404;2023-05-16T00:22:54;13.80;99.90
13049;DHT22;6591;51.446;5.404;2023-05-16T00:25:22;13.90;99.90
13049;DHT22;6591;51.446;5.404;2023-05-16T00:27:49;12.00;99.90
13049;DHT22;6591;51.446;5.404;2023-05-16T00:30:16;13.10;99.90
13049;DHT22;6591;51.446;5.404;2023-05-16T00:32:43;11.90;99.90
13049;DHT22;6591;51.446;5.404;2023-05-16T00:35:10;13.90;99.90
13049;DHT22;6591;51.446;5.404;2023-05-16T00:37:38;11.80;99.90
13049;DHT22;6591;51.446;5.404;2023-05-16T00:40:05;11.80;99.90
13049;DHT22;6591;51.446;5.404;2023-05-16T00:42:34;11.70;99.90
13049;DHT22;6591;51.446;5.404;2023-05-16T00:45:03;11.70;99.90
13049;DHT22;6591;51.446;5.404;2023-05-16T00:47:31;11.60;99.90
13049;DHT22;6591;51.446;5.404;2023-05-16T00:49:58;13.90;99.90
13049;DHT22;6591;51.446;5.404;2023-05-16T00:52:26;12.20;99.90
13049;DHT22;6591;51.446;5.404;2023-05-16T00:54:54;11.40;99.90
13049;DHT22;6591;51.446;5.404;2023-05-16T00:57:21;11.30;99.90
13049;DHT22;6591;51.446;5.404;2023-05-16T00:59:49;11.20;99.90
13049;DHT22;6591;51.446;5.404;2023-05-16T01:02:16;11.10;99.90
13049;DHT22;6591;51.446;5.404;2023-05-16T01:04:45;11.90;99.90
13049;DHT22;6591;51.446;5.404;2023-05-16T01:07:14;13.60;99.90
13049;DHT22;6591;51.446;5.404;2023-05-16T01:09:41;13.10;99.90
13049;DHT22;6591;51.446;5.404;2023-05-16T01:14:50;12.60;99.90
13049;DHT22;6591;51.446;5.404;2023-05-16T01:17:40;10.60;99.90
13049;DHT22;6591;51.446;5.404;2023-05-16T01:26:20;10.40;99.90
13049;DHT22;6591;51.446;5.404;2023-05-16T01:28:49;10.30;99.90
13049;DHT22;6591;51.446;5.404;2023-05-16T01:31:18;10.30;99.90
13049;DHT22;6591;51.446;5.404;2023-05-16T01:33:47;11.90;99.90
13049;DHT22;6591;51.446;5.404;2023-05-16T01:36:31;10.20;99.90
13049;DHT22;6591;51.446;5.404;2023-05-16T01:42:12;10.00;99.90
13049;DHT22;6591;51.446;5.404;2023-05-16T01:47:39;9.90;99.90
13049;DHT22;6591;51.446;5.404;2023-05-16T01:50:15;12.10;99.90
13049;DHT22;6591;51.446;5.404;2023-05-16T01:52:57;9.80;99.90
13049;DHT22;6591;51.446;5.404;2023-05-16T01:55:45;9.80;99.90
13049;DHT22;6591;51.446;5.404;2023-05-16T01:58:16;9.70;99.90
13049;DHT22;6591;51.446;5.404;2023-05-16T02:00:49;12.40;99.90
13049;DHT22;6591;51.446;5.404;2023-05-16T02:03:19;10.30;99.90
13049;DHT22;6591;51.446;5.404;2023-05-16T02:05:46;12.00;99.90
13049;DHT22;6591;51.446;5.404;2023-05-16T02:08:13;9.40;99.90
13049;DHT22;6591;51.446;5.404;2023-05-16T02:10:40;9.50;99.90
13049;DHT22;6591;51.446;5.404;2023-05-16T02:13:07;11.90;99.90
13049;DHT22;6591;51.446;5.404;2023-05-16T02:15:35;9.50;99.90
13049;DHT22;6591;51.446;5.404;2023-05-16T02:18:02;11.10;99.90
13049;DHT22;6591;51.446;5.404;2023-05-16T02:20:29;9.40;99.90
13049;DHT22;6591;51.446;5.404;2023-05-16T02:23:00;9.30;99.90
13049;DHT22;6591;51.446;5.404;2023-05-16T02:25:31;9.30;99.90
13049;DHT22;6591;51.446;5.404;2023-05-16T02:27:58;11.80;99.90
13049;DHT22;6591;51.446;5.404;2023-05-16T02:30:25;9.60;99.90
13049;DHT22;6591;51.446;5.404;2023-05-16T02:32:52;9.20;99.90
13049;DHT22;6591;51.446;5.404;2023-05-16T02:35:20;9.30;99.90
13049;DHT22;6591;51.446;5.404;2023-05-16T02:37:47;9.10;99.90
13049;DHT22;6591;51.446;5.404;2023-05-16T02:40:14;9.10;99.90
13049;DHT22;6591;51.446;5.404;2023-05-16T02:42:41;9.00;99.90
13049;DHT22;6591;51.446;5.404;2023-05-16T02:45:08;9.30;99.90
13049;DHT22;6591;51.446;5.404;2023-05-16T02:47:36;9.00;99.90
13049;DHT22;6591;51.446;5.404;2023-05-16T02:50:04;10.40;99.90
13049;DHT22;6591;51.446;5.404;2023-05-16T02:52:33;8.90;99.90
13049;DHT22;6591;51.446;5.404;2023-05-16T02:55:00;11.10;99.90
13049;DHT22;6591;51.446;5.404;2023-05-16T02:57:30;8.90;99.90
13049;DHT22;6591;51.446;5.404;2023-05-16T02:59:57;10.60;99.90
13049;DHT22;6591;51.446;5.404;2023-05-16T03:02:24;11.30;99.90
13049;DHT22;6591;51.446;5.404;2023-05-16T03:04:52;8.80;99.90
13049;DHT22;6591;51.446;5.404;2023-05-16T03:07:19;10.50;99.90
13049;DHT22;6591;51.446;5.404;2023-05-16T03:09:46;9.00;99.90
13049;DHT22;6591;51.446;5.404;2023-05-16T03:12:13;8.70;99.90
13049;DHT22;6591;51.446;5.404;2023-05-16T03:14:39;10.30;99.90
13049;DHT22;6591;51.446;5.404;2023-05-16T03:17:08;8.70;99.90
13049;DHT22;6591;51.446;5.404;2023-05-16T03:19:35;10.10;99.90
13049;DHT22;6591;51.446;5.404;2023-05-16T03:22:02;8.70;99.90
13049;DHT22;6591;51.446;5.404;2023-05-16T03:24:29;8.60;99.90
13049;DHT22;6591;51.446;5.404;2023-05-16T03:26:56;11.00;99.90
13049;DHT22;6591;51.446;5.404;2023-05-16T03:29:24;8.60;99.90
13049;DHT22;6591;51.446;5.404;2023-05-16T03:31:52;9.40;99.90
13049;DHT22;6591;51.446;5.404;2023-05-16T03:34:20;8.60;99.90
13049;DHT22;6591;51.446;5.404;2023-05-16T03:36:50;9.90;99.90
13049;DHT22;6591;51.446;5.404;2023-05-16T03:39:18;11.10;99.90
13049;DHT22;6591;51.446;5.404;2023-05-16T03:41:45;9.80;99.90
13049;DHT22;6591;51.446;5.404;2023-05-16T03:44:12;8.50;99.90
13049;DHT22;6591;51.446;5.404;2023-05-16T03:46:39;10.70;99.90
13049;DHT22;6591;51.446;5.404;2023-05-16T03:49:06;8.60;99.90
13049;DHT22;6591;51.446;5.404;2023-05-16T03:51:33;8.40;99.90
13049;DHT22;6591;51.446;5.404;2023-05-16T03:54:00;8.80;99.90
13049;DHT22;6591;51.446;5.404;2023-05-16T03:56:27;8.40;99.90
13049;DHT22;6591;51.446;5.404;2023-05-16T03:58:54;8.30;99.90
13049;DHT22;6591;51.446;5.404;2023-05-16T04:01:21;9.90;99.90
13049;DHT22;6591;51.446;5.404;2023-05-16T04:03:48;10.70;99.90
13049;DHT22;6591;51.446;5.404;2023-05-16T04:06:16;10.70;99.90
13049;DHT22;6591;51.446;5.404;2023-05-16T04:08:44;10.10;99.90
13049;DHT22;6591;51.446;5.404;2023-05-16T04:13:40;8.20;99.90
13049;DHT22;6591;51.446;5.404;2023-05-16T04:16:07;8.10;99.90
13049;DHT22;6591;51.446;5.404;2023-05-16T04:18:34;10.10;99.90
13049;DHT22;6591;51.446;5.404;2023-05-16T04:21:01;8.10;99.90
13049;DHT22;6591;51.446;5.404;2023-05-16T04:23:29;9.50;99.90
13049;DHT22;6591;51.446;5.404;2023-05-16T04:25:56;8.10;99.90
13049;DHT22;6591;51.446;5.404;2023-05-16T04:28:24;8.10;99.90
13049;DHT22;6591;51.446;5.404;2023-05-16T04:30:51;10.80;99.90
13049;DHT22;6591;51.446;5.404;2023-05-16T04:33:19;8.20;99.90
13049;DHT22;6591;51.446;5.404;2023-05-16T04:35:46;8.20;99.90
13049;DHT22;6591;51.446;5.404;2023-05-16T04:38:14;8.20;99.90
13049;DHT22;6591;51.446;5.404;2023-05-16T04:40:41;8.20;99.90
13049;DHT22;6591;51.446;5.404;2023-05-16T04:43:08;9.40;99.90
13049;DHT22;6591;51.446;5.404;2023-05-16T04:45:36;9.20;99.90
13049;DHT22;6591;51.446;5.404;2023-05-16T04:48:03;8.30;99.90
13049;DHT22;6591;51.446;5.404;2023-05-16T04:50:31;8.30;99.90
13049;DHT22;6591;51.446;5.404;2023-05-16T04:52:57;8.30;99.90
13049;DHT22;6591;51.446;5.404;2023-05-16T04:55:24;10.40;99.90
13049;DHT22;6591;51.446;5.404;2023-05-16T05:00:19;8.50;99.90
13049;DHT22;6591;51.446;5.404;2023-05-16T05:02:47;8.60;99.90
13049;DHT22;6591;51.446;5.404;2023-05-16T05:05:14;9.60;99.90
13049;DHT22;6591;51.446;5.404;2023-05-16T05:07:41;8.70;99.90
13049;DHT22;6591;51.446;5.404;2023-05-16T05:10:09;9.60;99.90
13049;DHT22;6591;51.446;5.404;2023-05-16T05:12:37;8.80;99.90
13049;DHT22;6591;51.446;5.404;2023-05-16T05:15:05;10.20;99.90
13049;DHT22;6591;51.446;5.404;2023-05-16T05:17:32;9.10;99.90
13049;DHT22;6591;51.446;5.404;2023-05-16T05:19:59;9.70;99.90
13049;DHT22;6591;51.446;5.404;2023-05-16T05:22:29;9.30;99.90
13049;DHT22;6591;51.446;5.404;2023-05-16T05:24:56;10.80;99.90
13049;DHT22;6591;51.446;5.404;2023-05-16T05:27:23;10.40;99.90
13049;DHT22;6591;51.446;5.404;2023-05-16T05:29:51;12.50;99.90
13049;DHT22;6591;51.446;5.404;2023-05-16T05:32:18;10.30;99.90
13049;DHT22;6591;51.446;5.404;2023-05-16T05:34:45;11.30;99.90
13049;DHT22;6591;51.446;5.404;2023-05-16T05:37:12;10.10;99.90
13049;DHT22;6591;51.446;5.404;2023-05-16T05:39:40;12.10;99.90
13049;DHT22;6591;51.446;5.404;2023-05-16T05:42:07;11.40;99.90
13049;DHT22;6591;51.446;5.404;2023-05-16T05:44:34;12.20;99.90
13049;DHT22;6591;51.446;5.404;2023-05-16T05:47:07;11.60;99.90
13049;DHT22;6591;51.446;5.404;2023-05-16T05:49:34;10.50;99.90
13049;DHT22;6591;51.446;5.404;2023-05-16T05:52:01;10.60;99.90
13049;DHT22;6591;51.446;5.404;2023-05-16T05:54:28;10.70;99.90
13049;DHT22;6591;51.446;5.404;2023-05-16T05:56:59;10.80;99.90
13049;DHT22;6591;51.446;5.404;2023-05-16T05:59:26;12.00;99.90
13049;DHT22;6591;51.446;5.404;2023-05-16T06:01:53;12.60;99.90
13049;DHT22;6591;51.446;5.404;2023-05-16T06:04:20;11.30;99.90
13049;DHT22;6591;51.446;5.404;2023-05-16T06:06:48;13.60;99.90
13049;DHT22;6591;51.446;5.404;2023-05-16T06:09:15;11.40;99.90
13049;DHT22;6591;51.446;5.404;2023-05-16T06:11:42;11.60;99.90
13049;DHT22;6591;51.446;5.404;2023-05-16T06:14:12;12.80;99.90
13049;DHT22;6591;51.446;5.404;2023-05-16T06:16:41;14.80;99.90
13049;DHT22;6591;51.446;5.404;2023-05-16T06:19:08;11.90;99.90
13049;DHT22;6591;51.446;5.404;2023-05-16T06:21:35;12.00;99.90
13049;DHT22;6591;51.446;5.404;2023-05-16T06:24:03;13.50;99.90
13049;DHT22;6591;51.446;5.404;2023-05-16T06:26:32;12.20;99.90
13049;DHT22;6591;51.446;5.404;2023-05-16T06:29:02;12.30;99.90
13049;DHT22;6591;51.446;5.404;2023-05-16T06:31:30;12.40;99.90
13049;DHT22;6591;51.446;5.404;2023-05-16T06:33:57;13.70;99.90
13049;DHT22;6591;51.446;5.404;2023-05-16T06:36:24;13.50;99.90
13049;DHT22;6591;51.446;5.404;2023-05-16T06:38:51;13.10;99.90
13049;DHT22;6591;51.446;5.404;2023-05-16T06:41:18;12.70;99.90
13049;DHT22;6591;51.446;5.404;2023-05-16T06:43:45;14.20;99.90
13049;DHT22;6591;51.446;5.404;2023-05-16T06:46:12;12.80;99.90
13049;DHT22;6591;51.446;5.404;2023-05-16T06:48:39;15.50;99.90
13049;DHT22;6591;51.446;5.404;2023-05-16T06:51:06;13.30;99.90
13049;DHT22;6591;51.446;5.404;2023-05-16T06:53:33;13.10;99.90
13049;DHT22;6591;51.446;5.404;2023-05-16T06:56:00;13.20;99.80
13049;DHT22;6591;51.446;5.404;2023-05-16T06:58:27;14.20;99.90
13049;DHT22;6591;51.446;5.404;2023-05-16T07:00:54;14.60;99.90
13049;DHT22;6591;51.446;5.404;2023-05-16T07:03:21;13.50;99.30
13049;DHT22;6591;51.446;5.404;2023-05-16T07:05:49;14.70;98.90
13049;DHT22;6591;51.446;5.404;2023-05-16T07:08:18;13.60;98.20
13049;DHT22;6591;51.446;5.404;2023-05-16T07:10:45;14.80;98.70
13049;DHT22;6591;51.446;5.404;2023-05-16T07:13:12;13.90;99.20
13049;DHT22;6591;51.446;5.404;2023-05-16T07:15:39;14.70;98.90
13049;DHT22;6591;51.446;5.404;2023-05-16T07:18:06;13.90;98.00
13049;DHT22;6591;51.446;5.404;2023-05-16T07:20:34;15.20;98.30
13049;DHT22;6591;51.446;5.404;2023-05-16T07:23:01;13.80;98.00
13049;DHT22;6591;51.446;5.404;2023-05-16T07:25:28;14.00;98.10
13049;DHT22;6591;51.446;5.404;2023-05-16T07:27:55;16.10;98.60
13049;DHT22;6591;51.446;5.404;2023-05-16T07:30:23;15.50;98.40
13049;DHT22;6591;51.446;5.404;2023-05-16T07:32:50;14.10;97.80
13049;DHT22;6591;51.446;5.404;2023-05-16T07:35:17;14.30;97.40
13049;DHT22;6591;51.446;5.404;2023-05-16T07:37:44;14.40;96.80
13049;DHT22;6591;51.446;5.404;2023-05-16T07:40:12;15.80;97.50
13049;DHT22;6591;51.446;5.404;2023-05-16T07:42:40;14.70;96.40
13049;DHT22;6591;51.446;5.404;2023-05-16T07:45:08;14.80;95.80
13049;DHT22;6591;51.446;5.404;2023-05-16T07:47:36;14.90;94.80
13049;DHT22;6591;51.446;5.404;2023-05-16T07:50:07;15.10;94.80
13049;DHT22;6591;51.446;5.404;2023-05-16T07:52:34;15.10;94.90
13049;DHT22;6591;51.446;5.404;2023-05-16T07:55:03;15.10;94.20
13049;DHT22;6591;51.446;5.404;2023-05-16T07:57:30;15.20;95.00
13049;DHT22;6591;51.446;5.404;2023-05-16T07:59:57;16.40;94.70
13049;DHT22;6591;51.446;5.404;2023-05-16T08:02:25;17.80;94.90
13049;DHT22;6591;51.446;5.404;2023-05-16T08:04:56;15.50;93.60
13049;DHT22;6591;51.446;5.404;2023-05-16T08:07:23;16.20;93.70
13049;DHT22;6591;51.446;5.404;2023-05-16T08:09:51;15.70;92.70
13049;DHT22;6591;51.446;5.404;2023-05-16T08:12:19;15.70;92.60
13049;DHT22;6591;51.446;5.404;2023-05-16T08:14:46;16.20;92.60
13049;DHT22;6591;51.446;5.404;2023-05-16T08:17:13;17.20;93.40
13049;DHT22;6591;51.446;5.404;2023-05-16T08:19:40;15.90;92.80
13049;DHT22;6591;51.446;5.404;2023-05-16T08:22:08;16.00;92.80
13049;DHT22;6591;51.446;5.404;2023-05-16T08:24:35;16.00;93.40
13049;DHT22;6591;51.446;5.404;2023-05-16T08:27:02;16.10;93.10
13049;DHT22;6591;51.446;5.404;2023-05-16T08:29:30;16.20;91.80
13049;DHT22;6591;51.446;5.404;2023-05-16T08:31:57;16.20;91.80
13049;DHT22;6591;51.446;5.404;2023-05-16T08:34:24;16.20;91.80
13049;DHT22;6591;51.446;5.404;2023-05-16T08:36:52;16.60;91.30
13049;DHT22;6591;51.446;5.404;2023-05-16T08:39:20;17.80;91.40
13049;DHT22;6591;51.446;5.404;2023-05-16T08:41:47;16.40;90.50
13049;DHT22;6591;51.446;5.404;2023-05-16T08:44:14;16.70;90.80
13049;DHT22;6591;51.446;5.404;2023-05-16T08:46:51;16.60;90.60
13049;DHT22;6591;51.446;5.404;2023-05-16T08:49:20;16.60;90.70
13049;DHT22;6591;51.446;5.404;2023-05-16T08:51:48;16.70;90.80
13049;DHT22;6591;51.446;5.404;2023-05-16T08:54:17;17.30;90.80
13049;DHT22;6591;51.446;5.404;2023-05-16T08:56:44;16.90;90.00
13049;DHT22;6591;51.446;5.404;2023-05-16T08:59:14;18.60;90.50
13049;DHT22;6591;51.446;5.404;2023-05-16T09:01:41;17.80;90.20
13049;DHT22;6591;51.446;5.404;2023-05-16T09:04:09;17.20;89.20
13049;DHT22;6591;51.446;5.404;2023-05-16T09:06:36;17.20;88.10
13049;DHT22;6591;51.446;5.404;2023-05-16T09:09:04;18.70;90.50
13049;DHT22;6591;51.446;5.404;2023-05-16T09:11:33;17.20;89.90
13049;DHT22;6591;51.446;5.404;2023-05-16T09:14:03;17.20;88.40
13049;DHT22;6591;51.446;5.404;2023-05-16T09:16:31;17.50;89.40
13049;DHT22;6591;51.446;5.404;2023-05-16T09:18:59;18.50;89.50
13049;DHT22;6591;51.446;5.404;2023-05-16T09:21:29;18.50;90.30
13049;DHT22;6591;51.446;5.404;2023-05-16T09:24:04;17.60;89.50
13049;DHT22;6591;51.446;5.404;2023-05-16T09:26:35;17.60;87.80
13049;DHT22;6591;51.446;5.404;2023-05-16T09:29:10;17.70;87.60
13049;DHT22;6591;51.446;5.404;2023-05-16T09:31:38;17.70;85.70
13049;DHT22;6591;51.446;5.404;2023-05-16T09:34:07;18.80;88.50
13049;DHT22;6591;51.446;5.404;2023-05-16T09:36:37;17.90;88.50
13049;DHT22;6591;51.446;5.404;2023-05-16T09:39:06;18.10;88.80
13049;DHT22;6591;51.446;5.404;2023-05-16T09:41:34;18.30;87.40
13049;DHT22;6591;51.446;5.404;2023-05-16T09:44:05;18.50;87.90
13049;DHT22;6591;51.446;5.404;2023-05-16T09:46:33;18.60;85.50
13049;DHT22;6591;51.446;5.404;2023-05-16T09:49:01;19.00;82.90
13049;DHT22;6591;51.446;5.404;2023-05-16T09:51:29;18.50;83.80
13049;DHT22;6591;51.446;5.404;2023-05-16T09:53:57;18.40;82.20
13049;DHT22;6591;51.446;5.404;2023-05-16T09:56:28;18.80;83.00
13049;DHT22;6591;51.446;5.404;2023-05-16T09:58:56;18.50;83.80
13049;DHT22;6591;51.446;5.404;2023-05-16T10:01:23;18.70;83.30
13049;DHT22;6591;51.446;5.404;2023-05-16T10:03:51;20.00;83.40
13049;DHT22;6591;51.446;5.404;2023-05-16T10:06:19;18.50;81.50
13049;DHT22;6591;51.446;5.404;2023-05-16T10:08:46;18.50;81.40
13049;DHT22;6591;51.446;5.404;2023-05-16T10:11:15;18.30;80.90
13049;DHT22;6591;51.446;5.404;2023-05-16T10:13:45;18.60;81.50
13049;DHT22;6591;51.446;5.404;2023-05-16T10:16:20;17.90;81.40
13049;DHT22;6591;51.446;5.404;2023-05-16T10:18:49;17.70;81.50
13049;DHT22;6591;51.446;5.404;2023-05-16T10:21:18;17.60;82.50
13049;DHT22;6591;51.446;5.404;2023-05-16T10:23:50;17.50;84.00
13049;DHT22;6591;51.446;5.404;2023-05-16T10:26:21;17.50;83.50
13049;DHT22;6591;51.446;5.404;2023-05-16T10:28:50;17.60;79.20
13049;DHT22;6591;51.446;5.404;2023-05-16T10:31:18;18.00;78.70
13049;DHT22;6591;51.446;5.404;2023-05-16T10:33:46;17.70;76.70
13049;DHT22;6591;51.446;5.404;2023-05-16T10:36:14;18.80;78.20
13049;DHT22;6591;51.446;5.404;2023-05-16T10:38:44;18.10;79.20
13049;DHT22;6591;51.446;5.404;2023-05-16T10:41:13;18.30;80.70
13049;DHT22;6591;51.446;5.404;2023-05-16T10:43:43;18.60;78.70
13049;DHT22;6591;51.446;5.404;2023-05-16T10:46:22;18.80;77.40
13049;DHT22;6591;51.446;5.404;2023-05-16T10:48:49;19.00;75.70
13049;DHT22;6591;51.446;5.404;2023-05-16T10:51:33;19.00;75.00
13049;DHT22;6591;51.446;5.404;2023-05-16T10:54:09;18.90;74.10
13049;DHT22;6591;51.446;5.404;2023-05-16T10:56:40;18.90;74.90
13049;DHT22;6591;51.446;5.404;2023-05-16T10:59:24;17.60;73.90
13049;DHT22;6591;51.446;5.404;2023-05-16T11:01:54;18.80;72.90
13049;DHT22;6591;51.446;5.404;2023-05-16T11:04:22;18.90;75.60
13049;DHT22;6591;51.446;5.404;2023-05-16T11:06:50;20.70;76.20
13049;DHT22;6591;51.446;5.404;2023-05-16T11:09:23;19.10;73.70
13049;DHT22;6591;51.446;5.404;2023-05-16T11:11:55;19.90;73.40
13049;DHT22;6591;51.446;5.404;2023-05-16T11:14:37;19.30;74.00
13049;DHT22;6591;51.446;5.404;2023-05-16T11:17:12;19.50;75.70
13049;DHT22;6591;51.446;5.404;2023-05-16T11:24:59;19.60;73.00
13049;DHT22;6591;51.446;5.404;2023-05-16T11:27:31;19.50;70.70
13049;DHT22;6591;51.446;5.404;2023-05-16T11:30:19;19.40;73.20
13049;DHT22;6591;51.446;5.404;2023-05-16T11:32:47;19.40;72.60
13049;DHT22;6591;51.446;5.404;2023-05-16T11:35:17;19.50;73.80
13049;DHT22;6591;51.446;5.404;2023-05-16T11:37:44;19.70;74.20
13049;DHT22;6591;51.446;5.404;2023-05-16T11:40:13;19.80;71.10
13049;DHT22;6591;51.446;5.404;2023-05-16T11:42:43;20.00;71.40
13049;DHT22;6591;51.446;5.404;2023-05-16T11:45:14;20.10;70.30
13049;DHT22;6591;51.446;5.404;2023-05-16T11:47:45;20.20;70.50
13049;DHT22;6591;51.446;5.404;2023-05-16T11:50:19;20.10;72.60
13049;DHT22;6591;51.446;5.404;2023-05-16T11:52:49;20.10;73.10
13049;DHT22;6591;51.446;5.404;2023-05-16T11:55:27;20.10;71.90
13049;DHT22;6591;51.446;5.404;2023-05-16T11:58:08;20.10;71.20
13049;DHT22;6591;51.446;5.404;2023-05-16T12:00:36;20.10;71.90
13049;DHT22;6591;51.446;5.404;2023-05-16T12:03:03;20.00;70.60
13049;DHT22;6591;51.446;5.404;2023-05-16T12:05:32;20.20;69.70
13049;DHT22;6591;51.446;5.404;2023-05-16T12:08:00;20.20;70.30
13049;DHT22;6591;51.446;5.404;2023-05-16T12:10:30;20.40;70.90
13049;DHT22;6591;51.446;5.404;2023-05-16T12:13:01;20.50;71.70
13049;DHT22;6591;51.446;5.404;2023-05-16T12:15:29;20.70;70.70
13049;DHT22;6591;51.446;5.404;2023-05-16T12:17:57;21.90;69.90
13049;DHT22;6591;51.446;5.404;2023-05-16T12:20:25;20.70;68.30
13049;DHT22;6591;51.446;5.404;2023-05-16T12:22:52;20.70;68.60
13049;DHT22;6591;51.446;5.404;2023-05-16T12:25:24;20.70;67.80
13049;DHT22;6591;51.446;5.404;2023-05-16T12:27:53;20.50;68.00
13049;DHT22;6591;51.446;5.404;2023-05-16T12:30:24;20.40;67.90
13049;DHT22;6591;51.446;5.404;2023-05-16T12:33:02;20.30;69.20
13049;DHT22;6591;51.446;5.404;2023-05-16T12:35:37;20.10;66.90
13049;DHT22;6591;51.446;5.404;2023-05-16T12:38:08;20.00;67.90
13049;DHT22;6591;51.446;5.404;2023-05-16T12:40:37;20.00;69.60
13049;DHT22;6591;51.446;5.404;2023-05-16T12:43:22;20.30;69.70
13049;DHT22;6591;51.446;5.404;2023-05-16T12:48:21;20.00;69.20
13049;DHT22;6591;51.446;5.404;2023-05-16T12:50:49;19.50;69.60
13049;DHT22;6591;51.446;5.404;2023-05-16T12:53:17;20.20;68.50
13049;DHT22;6591;51.446;5.404;2023-05-16T12:55:45;19.30;69.50
13049;DHT22;6591;51.446;5.404;2023-05-16T12:58:12;19.30;70.50
13049;DHT22;6591;51.446;5.404;2023-05-16T13:00:39;20.00;70.30
13049;DHT22;6591;51.446;5.404;2023-05-16T13:03:07;19.30;70.80
13049;DHT22;6591;51.446;5.404;2023-05-16T13:05:34;19.40;70.20
13049;DHT22;6591;51.446;5.404;2023-05-16T13:08:02;19.40;70.90
13049;DHT22;6591;51.446;5.404;2023-05-16T13:10:30;19.50;70.00
13049;DHT22;6591;51.446;5.404;2023-05-16T13:12:57;19.50;68.50
13049;DHT22;6591;51.446;5.404;2023-05-16T13:15:26;19.50;67.90
13049;DHT22;6591;51.446;5.404;2023-05-16T13:17:54;19.50;68.30
13049;DHT22;6591;51.446;5.404;2023-05-16T13:20:21;19.50;68.90
13049;DHT22;6591;51.446;5.404;2023-05-16T13:22:48;20.20;70.20
13049;DHT22;6591;51.446;5.404;2023-05-16T13:25:15;19.30;69.80
13049;DHT22;6591;51.446;5.404;2023-05-16T13:27:42;19.30;68.50
13049;DHT22;6591;51.446;5.404;2023-05-16T13:30:09;19.20;69.70
13049;DHT22;6591;51.446;5.404;2023-05-16T13:32:37;19.10;69.40
13049;DHT22;6591;51.446;5.404;2023-05-16T13:35:04;19.00;69.50
13049;DHT22;6591;51.446;5.404;2023-05-16T13:37:32;18.90;70.00
13049;DHT22;6591;51.446;5.404;2023-05-16T13:39:59;18.90;70.00
13049;DHT22;6591;51.446;5.404;2023-05-16T13:42:26;18.80;70.60
13049;DHT22;6591;51.446;5.404;2023-05-16T13:44:53;18.70;70.20
13049;DHT22;6591;51.446;5.404;2023-05-16T13:47:21;20.90;71.40
13049;DHT22;6591;51.446;5.404;2023-05-16T13:49:48;19.90;71.10
13049;DHT22;6591;51.446;5.404;2023-05-16T13:52:15;18.60;71.10
13049;DHT22;6591;51.446;5.404;2023-05-16T13:54:42;18.90;71.10
13049;DHT22;6591;51.446;5.404;2023-05-16T13:57:09;18.80;70.60
13049;DHT22;6591;51.446;5.404;2023-05-16T13:59:37;18.30;70.70
13049;DHT22;6591;51.446;5.404;2023-05-16T14:02:24;18.80;71.70
13049;DHT22;6591;51.446;5.404;2023-05-16T14:04:52;18.20;72.20
13049;DHT22;6591;51.446;5.404;2023-05-16T14:07:19;18.10;72.50
13049;DHT22;6591;51.446;5.404;2023-05-16T14:09:46;18.00;73.40
13049;DHT22;6591;51.446;5.404;2023-05-16T14:12:13;17.00;73.20
13049;DHT22;6591;51.446;5.404;2023-05-16T14:14:40;19.70;74.70
13049;DHT22;6591;51.446;5.404;2023-05-16T14:17:07;18.30;74.30
13049;DHT22;6591;51.446;5.404;2023-05-16T14:19:35;19.80;74.00
13049;DHT22;6591;51.446;5.404;2023-05-16T14:22:02;18.40;72.80
13049;DHT22;6591;51.446;5.404;2023-05-16T14:24:29;18.40;72.80
13049;DHT22;6591;51.446;5.404;2023-05-16T14:26:57;18.40;73.00
13049;DHT22;6591;51.446;5.404;2023-05-16T14:29:24;18.30;72.60
13049;DHT22;6591;51.446;5.404;2023-05-16T14:31:51;17.10;71.90
13049;DHT22;6591;51.446;5.404;2023-05-16T14:34:19;18.20;73.40
13049;DHT22;6591;51.446;5.404;2023-05-16T14:36:48;18.10;73.90
13049;DHT22;6591;51.446;5.404;2023-05-16T14:39:15;19.90;75.40
13049;DHT22;6591;51.446;5.404;2023-05-16T14:41:42;18.10;74.40
13049;DHT22;6591;51.446;5.404;2023-05-16T14:44:09;18.90;74.20
13049;DHT22;6591;51.446;5.404;2023-05-16T14:46:36;18.30;73.10
13049;DHT22;6591;51.446;5.404;2023-05-16T14:49:03;18.20;73.40
13049;DHT22;6591;51.446;5.404;2023-05-16T14:51:31;18.20;73.20
13049;DHT22;6591;51.446;5.404;2023-05-16T14:53:58;18.20;73.00
13049;DHT22;6591;51.446;5.404;2023-05-16T14:56:25;18.50;73.20
13049;DHT22;6591;51.446;5.404;2023-05-16T14:58:53;18.20;72.80
13049;DHT22;6591;51.446;5.404;2023-05-16T15:01:20;19.50;73.80
13049;DHT22;6591;51.446;5.404;2023-05-16T15:03:48;18.20;73.20
13049;DHT22;6591;51.446;5.404;2023-05-16T15:06:23;18.10;72.00
13049;DHT22;6591;51.446;5.404;2023-05-16T15:08:50;18.10;72.70
13049;DHT22;6591;51.446;5.404;2023-05-16T15:11:17;18.20;72.60
13049;DHT22;6591;51.446;5.404;2023-05-16T15:13:45;18.10;72.70
13049;DHT22;6591;51.446;5.404;2023-05-16T15:16:14;18.90;72.50
13049;DHT22;6591;51.446;5.404;2023-05-16T15:18:41;18.00;72.10
13049;DHT22;6591;51.446;5.404;2023-05-16T15:21:09;18.10;72.50
13049;DHT22;6591;51.446;5.404;2023-05-16T15:23:36;19.40;73.70
13049;DHT22;6591;51.446;5.404;2023-05-16T15:26:03;17.90;73.10
13049;DHT22;6591;51.446;5.404;2023-05-16T15:28:31;19.30;74.40
13049;DHT22;6591;51.446;5.404;2023-05-16T15:30:58;18.00;73.50
13049;DHT22;6591;51.446;5.404;2023-05-16T15:33:25;18.10;73.10
13049;DHT22;6591;51.446;5.404;2023-05-16T15:35:52;19.30;73.50
13049;DHT22;6591;51.446;5.404;2023-05-16T15:38:19;18.30;73.80
13049;DHT22;6591;51.446;5.404;2023-05-16T15:40:47;18.30;74.00
13049;DHT22;6591;51.446;5.404;2023-05-16T15:43:27;18.30;73.40
13049;DHT22;6591;51.446;5.404;2023-05-16T15:45:54;18.30;72.70
13049;DHT22;6591;51.446;5.404;2023-05-16T15:48:21;18.30;71.50
13049;DHT22;6591;51.446;5.404;2023-05-16T15:50:48;18.40;71.50
13049;DHT22;6591;51.446;5.404;2023-05-16T15:53:15;18.50;71.20
13049;DHT22;6591;51.446;5.404;2023-05-16T15:55:42;18.30;70.90
13049;DHT22;6591;51.446;5.404;2023-05-16T15:58:09;18.30;70.50
13049;DHT22;6591;51.446;5.404;2023-05-16T16:00:36;16.60;70.30
13049;DHT22;6591;51.446;5.404;2023-05-16T16:03:04;20.10;72.50
13049;DHT22;6591;51.446;5.404;2023-05-16T16:05:32;18.30;70.90
13049;DHT22;6591;51.446;5.404;2023-05-16T16:08:00;18.30;70.70
13049;DHT22;6591;51.446;5.404;2023-05-16T16:10:26;18.20;70.30
13049;DHT22;6591;51.446;5.404;2023-05-16T16:13:01;18.20;70.20
13049;DHT22;6591;51.446;5.404;2023-05-16T16:15:29;18.20;70.30
13049;DHT22;6591;51.446;5.404;2023-05-16T16:17:59;17.80;70.90
13049;DHT22;6591;51.446;5.404;2023-05-16T16:20:27;18.10;70.90
13049;DHT22;6591;51.446;5.404;2023-05-16T16:22:54;18.00;70.40